Jay — V7UL6 — position and weather

sailwx.info

Track history (hours):
 
Tides and Currents Weather Stations Pressure Air Temp Water Temp Dewpoint Dewpoint Depression Visibility Wind Speed Wind Dir Waves Ship Positions

Jay

Last reported at 2018-May-21 03:10 UTC. Time now 2018-Jun-24 03:38 UTC.
Position N 31°22' E 032°23'.
Warning: this ship's position is 34 days out of date.

Length 190 m; draft 12.9 m.

Type: Cargo ship. MMSI: 538003972.

Date/timePositionNaut miles runAvg speedWind from/ knotsBaromVisibWave heightAir tempDewpointWater temp
2018-May-21 03:10N 31°22' E 032°23'2 7.2
2018-May-21 02:56N 31°24' E 032°23'5 3.1
2018-May-21 01:27N 31°24' E 032°17'0 0.0
2018-May-20 11:13N 31°24' E 032°17'0 1.1
2018-May-20 11:00N 31°24' E 032°18'3 6.2
2018-May-20 10:29N 31°27' E 032°16'12 9.5
2018-May-20 09:15N 31°36' E 032°08'2 9.3
2018-May-20 09:00N 31°38' E 032°06'  
2018-May-16 23:31N 36°23' E 014°28'011.7
2018-May-16 23:30N 36°23' E 014°28'2112.0
2018-May-16 21:44N 36°29' E 014°02'311.8
2018-May-16 21:30N 36°30' E 013°59'612.0
2018-May-16 21:00N 36°32' E 013°52'711.9
2018-May-16 20:26N 36°34' E 013°44'511.7
2018-May-16 20:00N 36°35' E 013°38'611.8
2018-May-16 19:30N 36°37' E 013°31'611.7
2018-May-16 19:00N 36°39' E 013°24'611.8
2018-May-16 18:30N 36°41' E 013°17'611.7
2018-May-16 18:00N 36°42' E 013°10'611.6
2018-May-16 17:28N 36°44' E 013°03'1011.8
2018-May-16 16:36N 36°47' E 012°50'111.9
2018-May-16 16:30N 36°47' E 012°49'58511.7
2018-May-14 14:43N 36°44' E 000°39'27412.2
2018-May-13 16:13N 36°07' W 004°59'313.0
2018-May-13 16:00N 36°07' W 005°02'713.3
2018-May-13 15:29N 36°06' W 005°11'612.7
2018-May-13 15:00N 36°06' W 005°18'4 8.5
2018-May-13 14:30N 36°08' W 005°23'1 1.4
2018-May-13 13:59N 36°08' W 005°23'0 0.1
2018-May-13 13:29N 36°08' W 005°23'0 0.0
2018-May-13 12:20N 36°08' W 005°23'0 0.1
2018-May-13 11:47N 36°08' W 005°23'0 0.0
2018-May-13 11:20N 36°08' W 005°23'0 0.2
2018-May-13 10:56N 36°08' W 005°23'0 0.5
2018-May-13 10:26N 36°08' W 005°23'0 0.0
2018-May-13 05:14N 36°08' W 005°23'0 0.0
2018-May-13 04:56N 36°08' W 005°23'0 0.0
2018-May-13 00:51N 36°08' W 005°22'0 0.1
2018-May-13 00:29N 36°08' W 005°22'0 0.2
2018-May-12 23:56N 36°08' W 005°23'0 0.1
2018-May-12 23:29N 36°08' W 005°23'0 0.0
2018-May-12 22:59N 36°08' W 005°23'0 0.1
2018-May-12 21:39N 36°08' W 005°23'0 0.0
2018-May-12 21:27N 36°08' W 005°23'0 0.0
2018-May-12 17:20N 36°08' W 005°23'0 0.1
2018-May-12 16:56N 36°08' W 005°23'0 0.0
2018-May-12 10:09N 36°08' W 005°23'0 0.1
2018-May-12 09:43N 36°08' W 005°23'0 0.2
2018-May-12 09:30N 36°08' W 005°23'0 0.3
2018-May-12 08:58N 36°08' W 005°23'3 4.5
2018-May-12 08:16N 36°05' W 005°21'1 5.1
2018-May-12 08:00N 36°06' W 005°19'8 2.1
2018-May-12 03:56N 36°07' W 005°09'3 7.2
2018-May-12 03:27N 36°05' W 005°12'511.0
2018-May-12 03:00N 36°02' W 005°17'612.1
2018-May-12 02:30N 35°59' W 005°23'612.5
2018-May-12 02:00N 35°57' W 005°30'  
Track history (hours):
 
Tides and Currents Weather Stations Pressure Air Temp Water Temp Dewpoint Dewpoint Depression Visibility Wind Speed Wind Dir Waves Ship Positions

Jay

Last reported at 2018-May-21 03:10 UTC. Time now 2018-Jun-24 03:38 UTC.
Position N 31°22' E 032°23'.
Warning: this ship's position is 34 days out of date.

Length 190 m; draft 12.9 m.

Type: Cargo ship. MMSI: 538003972.

Date/timePositionNaut miles runAvg speedWind from/ knotsBaromVisibWave heightAir tempDewpointWater temp
2018-May-21 03:10N 31°22' E 032°23'2 7.2
2018-May-21 02:56N 31°24' E 032°23'5 3.1
2018-May-21 01:27N 31°24' E 032°17'0 0.0
2018-May-20 11:13N 31°24' E 032°17'0 1.1
2018-May-20 11:00N 31°24' E 032°18'3 6.2
2018-May-20 10:29N 31°27' E 032°16'12 9.5
2018-May-20 09:15N 31°36' E 032°08'2 9.3
2018-May-20 09:00N 31°38' E 032°06'  
2018-May-16 23:31N 36°23' E 014°28'011.7
2018-May-16 23:30N 36°23' E 014°28'2112.0
2018-May-16 21:44N 36°29' E 014°02'311.8
2018-May-16 21:30N 36°30' E 013°59'612.0
2018-May-16 21:00N 36°32' E 013°52'711.9
2018-May-16 20:26N 36°34' E 013°44'511.7
2018-May-16 20:00N 36°35' E 013°38'611.8
2018-May-16 19:30N 36°37' E 013°31'611.7
2018-May-16 19:00N 36°39' E 013°24'611.8
2018-May-16 18:30N 36°41' E 013°17'611.7
2018-May-16 18:00N 36°42' E 013°10'611.6
2018-May-16 17:28N 36°44' E 013°03'1011.8
2018-May-16 16:36N 36°47' E 012°50'111.9
2018-May-16 16:30N 36°47' E 012°49'58511.7
2018-May-14 14:43N 36°44' E 000°39'27412.2
2018-May-13 16:13N 36°07' W 004°59'313.0
2018-May-13 16:00N 36°07' W 005°02'713.3
2018-May-13 15:29N 36°06' W 005°11'612.7
2018-May-13 15:00N 36°06' W 005°18'4 8.5
2018-May-13 14:30N 36°08' W 005°23'1 1.4
2018-May-13 13:59N 36°08' W 005°23'0 0.1
2018-May-13 13:29N 36°08' W 005°23'0 0.0
2018-May-13 12:20N 36°08' W 005°23'0 0.1
2018-May-13 11:47N 36°08' W 005°23'0 0.0
2018-May-13 11:20N 36°08' W 005°23'0 0.2
2018-May-13 10:56N 36°08' W 005°23'0 0.5
2018-May-13 10:26N 36°08' W 005°23'0 0.0
2018-May-13 05:14N 36°08' W 005°23'0 0.0
2018-May-13 04:56N 36°08' W 005°23'0 0.0
2018-May-13 00:51N 36°08' W 005°22'0 0.1
2018-May-13 00:29N 36°08' W 005°22'0 0.2
2018-May-12 23:56N 36°08' W 005°23'0 0.1
2018-May-12 23:29N 36°08' W 005°23'0 0.0
2018-May-12 22:59N 36°08' W 005°23'0 0.1
2018-May-12 21:39N 36°08' W 005°23'0 0.0
2018-May-12 21:27N 36°08' W 005°23'0 0.0
2018-May-12 17:20N 36°08' W 005°23'0 0.1
2018-May-12 16:56N 36°08' W 005°23'0 0.0
2018-May-12 10:09N 36°08' W 005°23'0 0.1
2018-May-12 09:43N 36°08' W 005°23'0 0.2
2018-May-12 09:30N 36°08' W 005°23'0 0.3
2018-May-12 08:58N 36°08' W 005°23'3 4.5
2018-May-12 08:16N 36°05' W 005°21'1 5.1
2018-May-12 08:00N 36°06' W 005°19'8 2.1
2018-May-12 03:56N 36°07' W 005°09'3 7.2
2018-May-12 03:27N 36°05' W 005°12'511.0
2018-May-12 03:00N 36°02' W 005°17'612.1
2018-May-12 02:30N 35°59' W 005°23'612.5
2018-May-12 02:00N 35°57' W 005°30'  

Dump ship's entire track history